createdAt,value
2022-10-23T00:01:32.320Z,-1.36
2022-10-23T00:04:02.577Z,-1.37
2022-10-23T00:06:34.862Z,-1.40
2022-10-23T00:09:04.800Z,-1.36
2022-10-23T00:11:33.901Z,-1.34
2022-10-23T00:14:05.274Z,-1.31
2022-10-23T00:16:34.576Z,-1.31
2022-10-23T00:19:03.300Z,-1.24
2022-10-23T00:21:33.333Z,-1.04
2022-10-23T00:24:02.032Z,-1.00
2022-10-23T00:26:30.809Z,-0.89
2022-10-23T00:28:59.396Z,-0.81
2022-10-23T00:31:28.207Z,-0.81
2022-10-23T00:33:56.793Z,-0.77
2022-10-23T00:36:25.406Z,-0.75
2022-10-23T00:38:56.393Z,-0.68
2022-10-23T00:41:26.201Z,-0.60
2022-10-23T00:44:05.525Z,-0.56
2022-10-23T00:46:34.818Z,-0.50
2022-10-23T00:49:04.083Z,-0.47
2022-10-23T00:51:38.212Z,-0.42
2022-10-23T00:54:25.277Z,-0.37
2022-10-23T00:56:58.350Z,-0.29
2022-10-23T00:59:27.919Z,-0.23
2022-10-23T01:01:56.829Z,-0.15
2022-10-23T01:04:26.217Z,-0.08
2022-10-23T01:07:03.889Z,-0.07
2022-10-23T01:09:40.623Z,-0.03
2022-10-23T01:12:16.757Z,0.06
2022-10-23T01:14:58.561Z,0.05
2022-10-23T01:17:37.608Z,0.06
2022-10-23T01:20:21.268Z,0.04
2022-10-23T01:23:07.001Z,0.07
2022-10-23T01:25:53.921Z,0.09
2022-10-23T01:28:30.319Z,0.12
2022-10-23T01:31:01.432Z,0.18
2022-10-23T01:33:41.159Z,0.27
2022-10-23T01:36:15.004Z,0.30
2022-10-23T01:38:50.872Z,0.35
2022-10-23T01:41:30.403Z,0.38
2022-10-23T01:44:05.808Z,0.44
2022-10-23T01:46:37.813Z,0.49
2022-10-23T01:49:13.096Z,0.64
2022-10-23T01:51:46.884Z,0.70
2022-10-23T01:54:18.181Z,0.67
2022-10-23T01:56:49.757Z,0.61
2022-10-23T01:59:25.882Z,0.75
2022-10-23T02:01:58.293Z,0.74
2022-10-23T02:04:31.113Z,0.77
2022-10-23T02:06:59.986Z,0.84
2022-10-23T02:09:28.851Z,1.08
2022-10-23T02:12:02.871Z,1.07
2022-10-23T02:14:42.069Z,1.01
2022-10-23T02:17:17.197Z,1.02
2022-10-23T02:19:51.386Z,1.12
2022-10-23T02:22:25.059Z,1.17
2022-10-23T02:24:58.380Z,1.13
2022-10-23T02:27:32.663Z,1.18
2022-10-23T02:30:06.529Z,1.12
2022-10-23T02:32:39.057Z,1.11
2022-10-23T02:35:08.879Z,1.13
2022-10-23T02:37:37.594Z,1.16
2022-10-23T02:40:10.481Z,1.21
2022-10-23T02:42:52.419Z,1.28
2022-10-23T02:45:31.227Z,1.24
2022-10-23T02:48:05.773Z,1.22
2022-10-23T02:50:40.905Z,1.30
2022-10-23T02:53:17.581Z,1.36
2022-10-23T02:55:56.165Z,1.39
2022-10-23T02:58:30.589Z,1.39
2022-10-23T03:01:06.227Z,1.47
2022-10-23T03:03:39.384Z,1.42
2022-10-23T03:06:09.207Z,1.40
2022-10-23T03:08:45.559Z,1.43
2022-10-23T03:11:14.483Z,1.37
2022-10-23T03:13:43.381Z,1.46
2022-10-23T03:16:14.168Z,1.46
2022-10-23T03:18:43.090Z,1.54
2022-10-23T03:21:11.730Z,1.63
2022-10-23T03:23:40.711Z,1.71
2022-10-23T03:26:10.229Z,1.75
2022-10-23T03:28:44.021Z,1.77
2022-10-23T03:31:14.568Z,1.70
2022-10-23T03:33:44.041Z,1.74
2022-10-23T03:36:14.453Z,1.78
2022-10-23T03:38:45.466Z,1.84
2022-10-23T03:41:14.449Z,1.83
2022-10-23T03:43:43.106Z,1.76
2022-10-23T03:46:13.806Z,1.82
2022-10-23T03:48:42.720Z,1.88
2022-10-23T03:51:11.740Z,1.92
2022-10-23T03:53:42.801Z,1.99
2022-10-23T03:56:11.641Z,1.99
2022-10-23T03:58:41.387Z,1.97
2022-10-23T04:01:10.561Z,2.11
2022-10-23T04:03:40.973Z,2.19
2022-10-23T04:06:09.935Z,2.18
2022-10-23T04:08:39.492Z,2.30
2022-10-23T04:11:14.815Z,2.33
2022-10-23T04:13:48.004Z,2.46
2022-10-23T04:16:17.124Z,2.50
2022-10-23T04:18:48.273Z,2.49
2022-10-23T04:21:17.559Z,2.53
2022-10-23T04:23:46.471Z,2.57
2022-10-23T04:26:17.919Z,2.69
2022-10-23T04:28:46.661Z,2.78
2022-10-23T04:31:15.523Z,2.83
2022-10-23T04:33:45.257Z,2.86
2022-10-23T04:36:33.024Z,2.84
2022-10-23T04:39:10.225Z,2.84
2022-10-23T04:41:39.294Z,2.84
2022-10-23T04:44:08.489Z,2.77
2022-10-23T04:46:40.897Z,2.75
2022-10-23T04:49:10.824Z,2.77
2022-10-23T04:51:59.544Z,2.83
2022-10-23T04:54:47.153Z,2.87
2022-10-23T04:57:43.290Z,2.92
2022-10-23T05:00:15.900Z,2.92
2022-10-23T05:02:53.392Z,2.94
2022-10-23T05:05:23.092Z,2.94
2022-10-23T05:08:03.120Z,2.94
2022-10-23T05:10:57.885Z,2.95
2022-10-23T05:13:27.371Z,3.00
2022-10-23T05:15:56.228Z,3.03
2022-10-23T05:18:32.080Z,3.06
2022-10-23T05:21:03.951Z,3.07
2022-10-23T05:23:39.259Z,3.13
2022-10-23T05:26:08.374Z,3.14
2022-10-23T05:28:38.166Z,3.20
2022-10-23T05:31:07.929Z,3.25
2022-10-23T05:33:42.411Z,3.25
2022-10-23T05:36:14.408Z,3.24
2022-10-23T05:38:47.577Z,3.29
2022-10-23T05:41:19.013Z,3.31
2022-10-23T05:43:48.325Z,3.32
2022-10-23T05:46:35.475Z,3.39
2022-10-23T05:49:22.866Z,3.45
2022-10-23T05:52:12.818Z,3.47
2022-10-23T05:55:00.383Z,3.58
2022-10-23T05:57:52.032Z,3.62
2022-10-23T06:00:30.866Z,3.63
2022-10-23T06:03:18.926Z,3.66
2022-10-23T06:05:51.725Z,3.64
2022-10-23T06:08:24.558Z,3.70
2022-10-23T06:10:56.124Z,3.74
2022-10-23T06:13:24.514Z,3.74
2022-10-23T06:15:53.184Z,3.78
2022-10-23T06:18:24.078Z,3.81
2022-10-23T06:20:57.517Z,3.83
2022-10-23T06:23:28.343Z,3.85
2022-10-23T06:26:21.404Z,3.88
2022-10-23T06:29:00.721Z,3.95
2022-10-23T06:31:29.809Z,3.99
2022-10-23T06:34:01.053Z,4.02
2022-10-23T06:36:31.732Z,4.11
2022-10-23T06:39:13.569Z,4.12
2022-10-23T06:42:02.651Z,4.14
2022-10-23T06:44:57.931Z,4.14
2022-10-23T06:47:51.730Z,4.20
2022-10-23T06:50:35.324Z,4.22
2022-10-23T06:53:08.730Z,4.42
2022-10-23T06:55:41.326Z,4.38
2022-10-23T06:58:12.688Z,4.34
2022-10-23T07:00:57.362Z,4.32
2022-10-23T07:03:26.243Z,4.35
2022-10-23T07:05:55.004Z,4.37
2022-10-23T07:08:24.113Z,4.36
2022-10-23T07:10:55.144Z,4.34
2022-10-23T07:13:25.937Z,4.36
2022-10-23T07:16:23.762Z,4.41
2022-10-23T07:18:59.632Z,4.45
2022-10-23T07:21:34.894Z,4.47
2022-10-23T07:24:22.455Z,4.52
2022-10-23T07:29:27.748Z,4.57
2022-10-23T07:31:57.703Z,4.64
2022-10-23T07:34:52.628Z,4.71
2022-10-23T07:37:26.993Z,4.76
2022-10-23T07:39:55.772Z,4.79
2022-10-23T07:42:25.945Z,4.80
2022-10-23T07:44:56.389Z,4.83
2022-10-23T07:47:25.147Z,4.82
2022-10-23T07:49:54.539Z,4.86
2022-10-23T07:52:23.281Z,4.89
2022-10-23T07:55:11.980Z,4.88
2022-10-23T07:57:47.407Z,4.92
2022-10-23T08:00:34.017Z,4.94
2022-10-23T08:03:13.948Z,4.98
2022-10-23T08:05:43.182Z,5.02
2022-10-23T08:08:12.070Z,5.04
2022-10-23T08:10:43.198Z,5.07
2022-10-23T08:13:16.239Z,5.08
2022-10-23T08:16:05.123Z,5.17
2022-10-23T08:18:56.393Z,5.18
2022-10-23T08:21:25.708Z,5.22
2022-10-23T08:23:57.035Z,5.26
2022-10-23T08:26:27.237Z,5.27
2022-10-23T08:28:56.559Z,5.25
2022-10-23T08:31:27.407Z,5.28
2022-10-23T08:34:15.861Z,5.32
2022-10-23T08:36:47.047Z,5.35
2022-10-23T08:39:16.203Z,5.37
2022-10-23T08:41:59.130Z,5.41
2022-10-23T08:44:33.663Z,5.42
2022-10-23T08:47:09.319Z,5.41
2022-10-23T08:49:53.808Z,5.45
2022-10-23T08:52:27.487Z,5.48
2022-10-23T08:55:08.298Z,5.49
2022-10-23T08:57:42.744Z,5.49
2022-10-23T09:00:16.563Z,5.53
2022-10-23T09:02:49.098Z,6.62
2022-10-23T09:05:20.919Z,5.97
2022-10-23T09:08:02.763Z,5.85
2022-10-23T09:10:51.523Z,5.75
2022-10-23T09:13:37.402Z,5.77
2022-10-23T09:16:16.265Z,5.77
2022-10-23T09:18:49.184Z,5.78
2022-10-23T09:21:18.785Z,5.81
2022-10-23T09:23:47.492Z,5.80
2022-10-23T09:26:18.161Z,5.88
2022-10-23T09:28:50.103Z,5.93
2022-10-23T09:31:20.310Z,5.95
2022-10-23T09:34:06.487Z,5.97
2022-10-23T09:36:37.287Z,5.95
2022-10-23T09:39:05.971Z,5.94
2022-10-23T09:41:38.121Z,5.92
2022-10-23T09:44:20.323Z,5.92
2022-10-23T09:49:28.606Z,5.92
2022-10-23T09:52:06.392Z,5.92
2022-10-23T09:54:36.930Z,5.96
2022-10-23T09:57:21.147Z,5.98
2022-10-23T09:59:53.383Z,6.01
2022-10-23T10:02:29.151Z,6.01
2022-10-23T10:05:26.464Z,6.03
2022-10-23T10:08:00.843Z,6.04
2022-10-23T10:10:38.129Z,6.07
2022-10-23T10:13:23.022Z,6.10
2022-10-23T10:15:57.027Z,6.13
2022-10-23T10:18:33.785Z,6.12
2022-10-23T10:21:19.598Z,6.17
2022-10-23T10:23:56.144Z,6.19
2022-10-23T10:26:36.526Z,6.23
2022-10-23T10:29:15.703Z,6.28
2022-10-23T10:31:57.982Z,6.29
2022-10-23T10:34:34.803Z,6.34
2022-10-23T10:37:15.101Z,6.38
2022-10-23T10:39:51.341Z,6.40
2022-10-23T10:42:42.904Z,6.47
2022-10-23T10:45:21.604Z,6.50
2022-10-23T10:48:03.603Z,6.52
2022-10-23T10:50:49.957Z,6.57
2022-10-23T10:53:35.352Z,6.60
2022-10-23T10:56:05.866Z,6.61
2022-10-23T10:58:41.716Z,6.67
2022-10-23T11:01:19.369Z,6.67
2022-10-23T11:03:53.532Z,6.67
2022-10-23T11:06:26.079Z,6.67
2022-10-23T11:08:58.061Z,6.67
2022-10-23T11:11:40.829Z,6.70
2022-10-23T11:14:20.701Z,6.73
2022-10-23T11:16:52.713Z,6.80
2022-10-23T11:19:26.808Z,6.85
2022-10-23T11:21:59.883Z,6.84
2022-10-23T11:24:58.259Z,6.83
2022-10-23T11:27:44.469Z,6.85
2022-10-23T11:30:24.302Z,6.87
2022-10-23T11:33:36.131Z,6.90
2022-10-23T11:36:17.233Z,6.94
2022-10-23T11:38:49.247Z,6.90
2022-10-23T11:41:34.267Z,6.96
2022-10-23T11:44:04.805Z,6.94
2022-10-23T11:46:36.558Z,6.93
2022-10-23T11:49:06.577Z,6.97
2022-10-23T11:51:37.741Z,7.00
2022-10-23T11:54:24.932Z,6.98
2022-10-23T11:57:10.130Z,7.04
2022-10-23T11:59:54.197Z,7.04
2022-10-23T12:02:33.067Z,7.00
2022-10-23T12:05:05.959Z,7.01
2022-10-23T12:07:37.467Z,7.06
2022-10-23T12:10:08.842Z,7.08
2022-10-23T12:12:41.194Z,7.14
2022-10-23T12:15:20.962Z,7.18
2022-10-23T12:17:51.747Z,7.22
2022-10-23T12:20:46.502Z,7.24
2022-10-23T12:23:37.032Z,7.25
2022-10-23T12:26:21.212Z,7.29
2022-10-23T12:29:03.825Z,7.30
2022-10-23T12:31:47.009Z,7.35
2022-10-23T12:34:31.607Z,7.37
2022-10-23T12:37:24.662Z,7.42
2022-10-23T12:39:56.006Z,7.42
2022-10-23T12:42:26.794Z,7.42
2022-10-23T12:45:07.637Z,7.44
2022-10-23T12:50:19.882Z,7.47
2022-10-23T12:52:56.581Z,7.43
2022-10-23T12:55:27.501Z,7.45
2022-10-23T12:57:57.692Z,7.47
2022-10-23T13:00:27.833Z,7.46
2022-10-23T13:03:00.543Z,7.42
2022-10-23T13:05:30.740Z,7.44
2022-10-23T13:08:01.634Z,7.42
2022-10-23T13:10:43.902Z,7.43
2022-10-23T13:13:15.618Z,7.43
2022-10-23T13:15:46.906Z,7.41
2022-10-23T13:18:16.988Z,7.40
2022-10-23T13:20:59.379Z,7.46
2022-10-23T13:23:32.653Z,7.48
2022-10-23T13:26:02.407Z,7.52
2022-10-23T13:28:33.706Z,7.52
2022-10-23T13:31:24.509Z,7.51
2022-10-23T13:34:06.547Z,7.56
2022-10-23T13:36:37.466Z,7.55
2022-10-23T13:39:16.172Z,7.57
2022-10-23T13:41:46.841Z,7.57
2022-10-23T13:44:17.749Z,7.60
2022-10-23T13:46:48.655Z,7.65
2022-10-23T13:49:17.736Z,7.61
2022-10-23T13:51:50.895Z,7.61
2022-10-23T13:54:21.838Z,7.67
2022-10-23T13:56:50.638Z,7.64
2022-10-23T13:59:19.540Z,7.61
2022-10-23T14:01:50.764Z,7.63
2022-10-23T14:04:20.426Z,7.62
2022-10-23T14:06:49.144Z,7.62
2022-10-23T14:09:19.710Z,7.64
2022-10-23T14:11:49.081Z,7.65
2022-10-23T14:14:17.709Z,7.65
2022-10-23T14:16:46.515Z,7.64
2022-10-23T14:19:16.744Z,7.65
2022-10-23T14:21:45.463Z,7.60
2022-10-23T14:24:14.941Z,7.60
2022-10-23T14:26:43.730Z,7.60
2022-10-23T14:29:21.220Z,7.58
2022-10-23T14:31:52.091Z,7.58
2022-10-23T14:34:23.072Z,7.57
2022-10-23T14:37:07.443Z,7.58
2022-10-23T14:39:36.928Z,7.57
2022-10-23T14:42:05.767Z,7.55
2022-10-23T14:44:34.663Z,7.54
2022-10-23T14:47:03.418Z,7.50
2022-10-23T14:49:35.818Z,7.48
2022-10-23T14:52:04.745Z,7.45
2022-10-23T14:54:35.318Z,7.41
2022-10-23T14:57:04.503Z,7.43
2022-10-23T14:59:33.184Z,7.47
2022-10-23T15:02:01.903Z,7.42
2022-10-23T15:04:30.583Z,7.45
2022-10-23T15:07:00.765Z,7.47
2022-10-23T15:09:29.487Z,7.44
2022-10-23T15:11:58.185Z,7.41
2022-10-23T15:14:26.869Z,7.38
2022-10-23T15:16:55.630Z,7.39
2022-10-23T15:19:24.349Z,7.37
2022-10-23T15:21:53.092Z,7.35
2022-10-23T15:24:23.427Z,7.37
2022-10-23T15:26:52.347Z,7.37
2022-10-23T15:29:21.723Z,7.40
2022-10-23T15:31:55.096Z,7.40
2022-10-23T15:34:25.988Z,7.39
2022-10-23T15:36:56.179Z,7.36
2022-10-23T15:39:28.027Z,7.35
2022-10-23T15:41:58.507Z,7.36
2022-10-23T15:44:29.645Z,7.32
2022-10-23T15:46:58.350Z,7.29
2022-10-23T15:49:29.623Z,7.22
2022-10-23T15:51:58.934Z,7.24
2022-10-23T15:54:32.654Z,7.19
2022-10-23T15:57:02.387Z,7.14
2022-10-23T15:59:32.370Z,7.11
2022-10-23T16:02:01.110Z,7.07
2022-10-23T16:04:30.043Z,7.04
2022-10-23T16:06:58.875Z,7.02
2022-10-23T16:09:28.933Z,7.02
2022-10-23T16:11:57.551Z,7.01
2022-10-23T16:14:26.261Z,7.03
2022-10-23T16:16:54.990Z,7.02
2022-10-23T16:19:23.659Z,7.02
2022-10-23T16:21:52.405Z,7.02
2022-10-23T16:24:20.965Z,6.99
2022-10-23T16:27:01.112Z,6.97
2022-10-23T16:29:29.815Z,6.94
2022-10-23T16:32:00.032Z,6.92
2022-10-23T16:34:28.681Z,6.91
2022-10-23T16:36:57.241Z,6.88
2022-10-23T16:39:44.401Z,6.87
2022-10-23T16:42:38.059Z,6.85
2022-10-23T16:45:23.100Z,6.82
2022-10-23T16:47:51.761Z,6.80
2022-10-23T16:50:20.525Z,6.77
2022-10-23T16:52:52.016Z,6.73
2022-10-23T16:55:23.341Z,6.67
2022-10-23T16:57:53.561Z,6.65
2022-10-23T17:00:24.282Z,6.60
2022-10-23T17:02:52.885Z,6.57
2022-10-23T17:05:21.511Z,6.55
2022-10-23T17:07:50.531Z,6.52
2022-10-23T17:10:19.311Z,6.48
2022-10-23T17:12:47.855Z,6.47
2022-10-23T17:15:18.074Z,6.44
2022-10-23T17:17:47.075Z,6.42
2022-10-23T17:20:15.758Z,6.39
2022-10-23T17:22:44.211Z,6.39
2022-10-23T17:25:12.806Z,6.36
2022-10-23T17:27:42.929Z,6.33
2022-10-23T17:30:13.748Z,6.31
2022-10-23T17:32:44.401Z,6.29
2022-10-23T17:35:13.492Z,6.28
2022-10-23T17:37:42.054Z,6.25
2022-10-23T17:40:11.574Z,6.23
2022-10-23T17:42:40.336Z,6.20
2022-10-23T17:45:10.133Z,6.22
2022-10-23T17:47:40.331Z,6.18
2022-10-23T17:50:12.497Z,6.17
2022-10-23T17:52:42.480Z,6.16
2022-10-23T17:55:11.575Z,6.14
2022-10-23T17:57:41.653Z,6.14
2022-10-23T18:00:11.617Z,6.16
2022-10-23T18:02:43.133Z,6.13
2022-10-23T18:05:13.375Z,6.14
2022-10-23T18:07:42.270Z,6.11
2022-10-23T18:10:11.952Z,6.09
2022-10-23T18:12:40.950Z,6.09
2022-10-23T18:15:10.807Z,6.09
2022-10-23T18:17:39.543Z,6.08
2022-10-23T18:20:11.019Z,6.06
2022-10-23T18:22:41.196Z,6.03
2022-10-23T18:25:10.620Z,6.02
2022-10-23T18:27:41.657Z,6.01
2022-10-23T18:30:15.750Z,5.98
2022-10-23T18:32:44.943Z,5.97
2022-10-23T18:35:13.641Z,5.97
2022-10-23T18:37:44.814Z,5.97
2022-10-23T18:40:14.916Z,5.97
2022-10-23T18:42:43.931Z,5.95
2022-10-23T18:45:14.111Z,5.96
2022-10-23T18:47:42.979Z,5.95
2022-10-23T18:50:14.971Z,5.94
2022-10-23T18:52:45.133Z,5.95
2022-10-23T18:55:15.610Z,5.92
2022-10-23T18:57:44.618Z,5.91
2022-10-23T19:00:15.037Z,5.91
2022-10-23T19:02:43.898Z,5.90
2022-10-23T19:05:12.567Z,5.89
2022-10-23T19:07:45.422Z,5.88
2022-10-23T19:10:19.607Z,5.86
2022-10-23T19:12:48.571Z,5.85
2022-10-23T19:15:17.481Z,5.85
2022-10-23T19:17:52.751Z,5.83
2022-10-23T19:20:23.145Z,5.81
2022-10-23T19:22:54.434Z,5.81
2022-10-23T19:25:28.822Z,5.80
2022-10-23T19:27:58.259Z,5.78
2022-10-23T19:30:27.297Z,5.78
2022-10-23T19:32:56.298Z,5.79
2022-10-23T19:35:25.075Z,5.77
2022-10-23T19:37:53.799Z,5.75
2022-10-23T19:40:24.578Z,5.76
2022-10-23T19:42:54.444Z,5.76
2022-10-23T19:45:23.395Z,5.76
2022-10-23T19:47:53.476Z,5.75
2022-10-23T19:50:22.761Z,5.73
2022-10-23T19:52:51.329Z,5.72
2022-10-23T19:55:20.045Z,5.71
2022-10-23T19:57:50.001Z,5.71
2022-10-23T20:00:19.102Z,5.69
2022-10-23T20:02:50.223Z,5.69
2022-10-23T20:05:21.974Z,5.68
2022-10-23T20:07:51.560Z,5.68
2022-10-23T20:10:20.340Z,5.66
2022-10-23T20:12:56.817Z,5.65
2022-10-23T20:15:31.441Z,5.63
2022-10-23T20:18:00.032Z,5.62
2022-10-23T20:20:28.802Z,5.60
2022-10-23T20:22:57.729Z,5.61
2022-10-23T20:25:28.006Z,5.62
2022-10-23T20:27:58.645Z,5.63
2022-10-23T20:30:27.542Z,5.62
2022-10-23T20:32:56.270Z,5.63
2022-10-23T20:35:25.351Z,5.64
2022-10-23T20:37:53.911Z,5.64
2022-10-23T20:40:22.964Z,5.65
2022-10-23T20:42:51.525Z,5.65
2022-10-23T20:45:21.762Z,5.63
2022-10-23T20:47:50.387Z,5.61
2022-10-23T20:50:19.497Z,5.60
2022-10-23T20:52:48.261Z,5.59
2022-10-23T20:55:17.243Z,5.58
2022-10-23T20:57:46.208Z,5.58
2022-10-23T21:00:15.623Z,5.59
2022-10-23T21:02:48.462Z,5.58
2022-10-23T21:05:20.066Z,5.57
2022-10-23T21:07:48.828Z,5.57
2022-10-23T21:10:17.683Z,5.54
2022-10-23T21:12:46.591Z,5.55
2022-10-23T21:15:15.387Z,5.52
2022-10-23T21:17:46.475Z,5.51
2022-10-23T21:20:15.186Z,5.49
2022-10-23T21:22:44.110Z,5.51
2022-10-23T21:25:13.284Z,5.51
2022-10-23T21:27:42.165Z,5.52
2022-10-23T21:30:12.641Z,5.53
2022-10-23T21:32:41.587Z,5.50
2022-10-23T21:35:12.807Z,5.48
2022-10-23T21:37:41.743Z,5.47
2022-10-23T21:40:12.080Z,5.42
2022-10-23T21:42:40.900Z,5.39
2022-10-23T21:45:10.718Z,5.38
2022-10-23T21:47:39.702Z,5.33
2022-10-23T21:50:08.986Z,5.32
2022-10-23T21:52:39.228Z,5.20
2022-10-23T21:55:08.624Z,5.15
2022-10-23T21:57:37.403Z,5.07
2022-10-23T22:00:07.893Z,5.07
2022-10-23T22:02:41.464Z,5.02
2022-10-23T22:05:11.762Z,4.95
2022-10-23T22:07:42.787Z,5.00
2022-10-23T22:10:11.979Z,4.98
2022-10-23T22:12:40.581Z,4.98
2022-10-23T22:15:10.235Z,4.99
2022-10-23T22:17:38.932Z,5.01
2022-10-23T22:20:08.880Z,5.02
2022-10-23T22:22:37.517Z,4.98
2022-10-23T22:25:08.859Z,4.94
2022-10-23T22:27:38.844Z,4.91
2022-10-23T22:30:08.299Z,4.84
2022-10-23T22:32:36.927Z,4.82
2022-10-23T22:35:06.533Z,4.79
2022-10-23T22:37:35.524Z,4.76
2022-10-23T22:40:04.351Z,4.76
2022-10-23T22:42:34.386Z,4.66
2022-10-23T22:45:03.110Z,4.66
2022-10-23T22:47:31.645Z,4.62
2022-10-23T22:50:00.270Z,4.60
2022-10-23T22:52:28.871Z,4.58
2022-10-23T22:54:57.505Z,4.57
2022-10-23T22:59:57.035Z,4.61
2022-10-23T23:02:25.761Z,4.59
2022-10-23T23:04:54.316Z,4.57
2022-10-23T23:07:22.991Z,4.51
2022-10-23T23:09:51.756Z,4.52
2022-10-23T23:12:20.386Z,4.51
2022-10-23T23:14:49.131Z,4.36
2022-10-23T23:17:19.228Z,4.39
2022-10-23T23:19:47.878Z,4.38
2022-10-23T23:22:16.538Z,4.39
2022-10-23T23:24:45.393Z,4.29
2022-10-23T23:27:13.942Z,4.27
2022-10-23T23:29:42.574Z,4.32
2022-10-23T23:32:12.062Z,4.25
2022-10-23T23:34:42.369Z,4.14
2022-10-23T23:37:11.116Z,4.16
2022-10-23T23:39:39.796Z,4.15
2022-10-23T23:42:08.607Z,4.13
2022-10-23T23:44:45.770Z,3.92
2022-10-23T23:47:24.691Z,3.95
2022-10-23T23:49:54.828Z,4.05
2022-10-23T23:52:23.581Z,4.02
2022-10-23T23:54:52.145Z,4.04
2022-10-23T23:57:20.836Z,4.09
2022-10-23T23:59:49.574Z,4.11
